createdAt,value
2022-12-12T00:01:36.079Z,8.13
2022-12-12T00:04:03.303Z,10.45
2022-12-12T00:06:30.428Z,9.07
2022-12-12T00:08:57.783Z,11.18
2022-12-12T00:11:25.747Z,9.65
2022-12-12T00:13:54.387Z,8.40
2022-12-12T00:16:22.168Z,11.93
2022-12-12T00:18:49.104Z,12.35
2022-12-12T00:21:23.831Z,12.73
2022-12-12T00:23:51.885Z,13.63
2022-12-12T00:26:31.510Z,12.63
2022-12-12T00:28:59.122Z,9.68
2022-12-12T00:31:27.602Z,10.05
2022-12-12T00:33:55.185Z,10.23
2022-12-12T00:36:26.765Z,14.07
2022-12-12T00:38:54.224Z,12.95
2022-12-12T00:41:22.264Z,10.00
2022-12-12T00:43:49.241Z,9.73
2022-12-12T00:46:17.638Z,11.63
2022-12-12T00:48:44.789Z,12.38
2022-12-12T00:51:16.262Z,8.80
2022-12-12T00:53:43.314Z,10.48
2022-12-12T00:56:10.275Z,8.20
2022-12-12T00:58:37.173Z,8.38
2022-12-12T01:01:10.075Z,8.27
2022-12-12T01:03:39.598Z,8.82
2022-12-12T01:06:07.153Z,8.52
2022-12-12T01:08:34.137Z,9.13
2022-12-12T01:11:01.238Z,8.50
2022-12-12T01:13:28.533Z,8.80
2022-12-12T01:15:55.453Z,9.43
2022-12-12T01:18:22.348Z,9.98
2022-12-12T01:20:49.166Z,6.60
2022-12-12T01:23:16.166Z,7.28
2022-12-12T01:25:43.011Z,8.82
2022-12-12T01:28:10.462Z,7.00
2022-12-12T01:30:37.895Z,7.22
2022-12-12T01:33:05.033Z,7.20
2022-12-12T01:35:33.388Z,5.63
2022-12-12T01:38:00.772Z,6.80
2022-12-12T01:40:30.359Z,6.35
2022-12-12T01:42:58.688Z,9.25
2022-12-12T01:45:59.674Z,8.60
2022-12-12T01:48:39.475Z,10.25
2022-12-12T01:51:11.750Z,7.97
2022-12-12T01:53:38.920Z,5.72
2022-12-12T01:56:09.376Z,7.82
2022-12-12T01:58:36.155Z,5.10
2022-12-12T02:01:03.057Z,7.57
2022-12-12T02:03:30.026Z,6.53
2022-12-12T02:06:01.510Z,7.63
2022-12-12T02:08:29.454Z,10.13
2022-12-12T02:10:56.646Z,8.40
2022-12-12T02:13:27.524Z,8.52
2022-12-12T02:16:24.364Z,8.32
2022-12-12T02:18:59.070Z,7.45
2022-12-12T02:21:59.278Z,9.80
2022-12-12T02:24:41.051Z,12.15
2022-12-12T02:27:41.628Z,9.38
2022-12-12T02:30:13.916Z,12.70
2022-12-12T02:33:23.202Z,9.55
2022-12-12T02:36:17.335Z,6.95
2022-12-12T02:39:17.028Z,6.50
2022-12-12T02:42:02.855Z,7.13
2022-12-12T02:44:39.926Z,9.15
2022-12-12T02:47:15.332Z,7.90
2022-12-12T02:50:14.024Z,8.77
2022-12-12T02:52:43.721Z,7.32
2022-12-12T02:55:11.511Z,6.97
2022-12-12T02:57:41.797Z,6.35
2022-12-12T03:00:13.285Z,7.22
2022-12-12T03:03:18.668Z,7.13
2022-12-12T03:06:24.506Z,6.72
2022-12-12T03:09:18.734Z,8.23
2022-12-12T03:11:57.519Z,8.57
2022-12-12T03:14:35.120Z,6.75
2022-12-12T03:17:14.003Z,6.85
2022-12-12T03:19:55.948Z,7.47
2022-12-12T03:22:36.173Z,7.43
2022-12-12T03:25:45.026Z,6.30
2022-12-12T03:28:17.794Z,5.40
2022-12-12T03:30:48.756Z,6.80
2022-12-12T03:33:37.022Z,8.85
2022-12-12T03:36:13.605Z,8.13
2022-12-12T03:38:46.360Z,6.75
2022-12-12T03:41:19.646Z,6.25
2022-12-12T03:43:56.221Z,6.30
2022-12-12T03:46:25.059Z,6.75
2022-12-12T03:49:04.743Z,8.75
2022-12-12T03:51:36.277Z,7.30
2022-12-12T03:54:13.782Z,8.15
2022-12-12T03:56:50.287Z,7.90
2022-12-12T03:59:29.170Z,6.43
2022-12-12T04:02:11.545Z,6.72
2022-12-12T04:04:56.381Z,6.88
2022-12-12T04:07:28.928Z,7.07
2022-12-12T04:10:14.518Z,7.25
2022-12-12T04:12:58.894Z,6.28
2022-12-12T04:15:57.106Z,8.55
2022-12-12T04:18:35.683Z,9.35
2022-12-12T04:21:35.183Z,7.47
2022-12-12T04:24:29.139Z,10.05
2022-12-12T04:27:09.279Z,7.07
2022-12-12T04:30:00.419Z,7.18
2022-12-12T04:32:39.871Z,8.98
2022-12-12T04:35:10.423Z,6.57
2022-12-12T04:37:43.619Z,8.68
2022-12-12T04:40:34.965Z,7.75
2022-12-12T04:43:27.061Z,7.53
2022-12-12T04:46:00.322Z,7.68
2022-12-12T04:48:38.591Z,8.30
2022-12-12T04:51:09.173Z,7.68
2022-12-12T04:53:42.990Z,8.40
2022-12-12T04:56:13.675Z,6.10
2022-12-12T04:58:41.361Z,6.72
2022-12-12T05:01:11.740Z,5.45
2022-12-12T05:03:59.736Z,8.70
2022-12-12T05:06:41.818Z,6.55
2022-12-12T05:09:11.709Z,7.57
2022-12-12T05:11:39.057Z,6.40
2022-12-12T05:14:09.431Z,6.45
2022-12-12T05:16:48.570Z,7.35
2022-12-12T05:19:16.514Z,5.72
2022-12-12T05:21:43.792Z,6.20
2022-12-12T05:24:10.513Z,7.38
2022-12-12T05:26:37.691Z,11.98
2022-12-12T05:29:07.742Z,8.38
2022-12-12T05:31:35.535Z,5.32
2022-12-12T05:34:03.208Z,7.80
2022-12-12T05:36:30.869Z,5.95
2022-12-12T05:38:57.694Z,6.95
2022-12-12T05:41:24.602Z,6.00
2022-12-12T05:43:51.329Z,6.70
2022-12-12T05:46:18.189Z,8.73
2022-12-12T05:48:50.287Z,7.82
2022-12-12T05:51:18.044Z,8.35
2022-12-12T05:53:45.171Z,7.65
2022-12-12T05:56:13.061Z,6.55
2022-12-12T05:58:40.724Z,7.72
2022-12-12T06:01:08.106Z,7.05
2022-12-12T06:03:35.422Z,18.55
2022-12-12T06:06:02.363Z,16.05
2022-12-12T06:08:29.489Z,8.65
2022-12-12T06:10:56.371Z,8.18
2022-12-12T06:13:23.571Z,8.63
2022-12-12T06:15:50.853Z,7.07
2022-12-12T06:18:18.983Z,9.00
2022-12-12T06:20:46.219Z,6.35
2022-12-12T06:23:13.594Z,6.28
2022-12-12T06:25:41.095Z,7.68
2022-12-12T06:28:08.140Z,8.20
2022-12-12T06:30:34.869Z,10.13
2022-12-12T06:33:01.624Z,11.68
2022-12-12T06:35:28.433Z,9.18
2022-12-12T06:37:55.435Z,8.88
2022-12-12T06:40:22.310Z,13.43
2022-12-12T06:42:49.833Z,8.52
2022-12-12T06:45:17.808Z,11.05
2022-12-12T06:47:44.647Z,11.82
2022-12-12T06:50:11.743Z,8.98
2022-12-12T06:52:38.796Z,7.93
2022-12-12T06:55:06.046Z,26.92
2022-12-12T06:57:32.910Z,11.70
2022-12-12T07:00:00.163Z,22.20
2022-12-12T07:02:29.963Z,25.55
2022-12-12T07:04:58.193Z,25.85
2022-12-12T07:07:24.996Z,31.92
2022-12-12T07:09:51.728Z,29.33
2022-12-12T07:12:18.692Z,48.28
2022-12-12T07:14:45.497Z,35.10
2022-12-12T07:17:12.391Z,32.45
2022-12-12T07:19:39.118Z,22.40
2022-12-12T07:22:09.694Z,27.27
2022-12-12T07:24:37.179Z,30.50
2022-12-12T07:27:04.231Z,29.33
2022-12-12T07:29:30.952Z,25.40
2022-12-12T07:31:58.336Z,27.45
2022-12-12T07:34:25.892Z,30.83
2022-12-12T07:36:55.473Z,27.73
2022-12-12T07:39:26.225Z,32.85
2022-12-12T07:41:53.017Z,31.60
2022-12-12T07:44:19.829Z,33.78
2022-12-12T07:46:46.725Z,42.33
2022-12-12T07:49:13.929Z,33.17
2022-12-12T07:51:45.588Z,26.10
2022-12-12T07:54:15.497Z,21.98
2022-12-12T07:56:42.432Z,21.27
2022-12-12T07:59:09.437Z,17.98
2022-12-12T08:01:36.369Z,23.30
2022-12-12T08:04:06.215Z,24.52
2022-12-12T08:06:33.460Z,28.20
2022-12-12T08:09:00.213Z,58.53
2022-12-12T08:11:27.173Z,73.82
2022-12-12T08:13:54.287Z,37.40
2022-12-12T08:16:26.834Z,31.52
2022-12-12T08:18:55.729Z,36.35
2022-12-12T08:21:25.840Z,23.17
2022-12-12T08:24:01.621Z,29.33
2022-12-12T08:26:29.812Z,24.38
2022-12-12T08:28:57.231Z,27.95
2022-12-12T08:31:24.972Z,36.55
2022-12-12T08:33:53.198Z,26.10
2022-12-12T08:36:31.527Z,22.73
2022-12-12T08:39:10.842Z,28.67
2022-12-12T08:41:40.351Z,28.52
2022-12-12T08:44:08.426Z,21.52
2022-12-12T08:46:36.036Z,30.38
2022-12-12T08:49:03.463Z,33.17
2022-12-12T08:51:30.248Z,26.77
2022-12-12T08:53:57.216Z,23.27
2022-12-12T08:56:24.597Z,23.15
2022-12-12T08:58:52.112Z,21.85
2022-12-12T09:01:24.461Z,19.75
2022-12-12T09:03:52.643Z,25.42
2022-12-12T09:06:20.009Z,20.70
2022-12-12T09:08:47.163Z,23.35
2022-12-12T09:11:15.051Z,23.20
2022-12-12T09:13:42.084Z,20.45
2022-12-12T09:16:10.207Z,24.17
2022-12-12T09:18:40.839Z,22.35
2022-12-12T09:21:12.029Z,15.98
2022-12-12T09:23:39.072Z,20.25
2022-12-12T09:26:07.344Z,18.65
2022-12-12T09:28:34.578Z,18.35
2022-12-12T09:31:05.972Z,20.80
2022-12-12T09:33:33.415Z,19.38
2022-12-12T09:36:02.628Z,21.40
2022-12-12T09:38:29.674Z,19.10
2022-12-12T09:41:20.903Z,19.95
2022-12-12T09:43:57.588Z,21.33
2022-12-12T09:46:35.465Z,18.77
2022-12-12T09:49:10.779Z,18.85
2022-12-12T09:51:40.594Z,24.75
2022-12-12T09:54:07.520Z,25.17
2022-12-12T09:57:06.492Z,24.05
2022-12-12T09:59:44.095Z,19.25
2022-12-12T10:02:36.852Z,22.42
2022-12-12T10:05:33.802Z,18.45
2022-12-12T10:08:10.593Z,15.20
2022-12-12T10:10:44.745Z,13.35
2022-12-12T10:13:32.765Z,11.65
2022-12-12T10:16:12.636Z,9.93
2022-12-12T10:18:43.617Z,11.68
2022-12-12T10:21:19.833Z,14.05
2022-12-12T10:23:55.765Z,21.20
2022-12-12T10:26:28.590Z,20.50
2022-12-12T10:29:09.080Z,23.00
2022-12-12T10:32:03.212Z,25.25
2022-12-12T10:34:58.582Z,18.15
2022-12-12T10:37:28.468Z,18.65
2022-12-12T10:40:24.078Z,40.00
2022-12-12T10:43:05.661Z,18.45
2022-12-12T10:45:57.708Z,27.30
2022-12-12T10:48:25.066Z,11.40
2022-12-12T10:50:58.482Z,13.13
2022-12-12T10:53:26.164Z,11.38
2022-12-12T10:56:11.303Z,13.55
2022-12-12T10:58:43.903Z,14.38
2022-12-12T11:01:18.861Z,11.93
2022-12-12T11:03:51.174Z,13.27
2022-12-12T11:06:31.620Z,12.55
2022-12-12T11:09:06.483Z,15.18
2022-12-12T11:11:33.337Z,12.27
2022-12-12T11:14:02.434Z,10.80
2022-12-12T11:16:44.141Z,13.93
2022-12-12T11:19:18.723Z,15.65
2022-12-12T11:21:46.908Z,10.63
2022-12-12T11:24:19.254Z,17.50
2022-12-12T11:27:17.149Z,10.82
2022-12-12T11:29:47.918Z,12.05
2022-12-12T11:32:18.235Z,15.20
2022-12-12T11:34:49.487Z,10.75
2022-12-12T11:37:21.945Z,15.50
2022-12-12T11:39:53.287Z,14.00
2022-12-12T11:42:25.674Z,10.85
2022-12-12T11:45:22.856Z,12.40
2022-12-12T11:47:50.081Z,10.88
2022-12-12T11:50:26.275Z,9.35
2022-12-12T11:53:02.097Z,11.57
2022-12-12T11:55:57.637Z,10.65
2022-12-12T11:58:36.350Z,11.27
2022-12-12T12:01:35.316Z,15.30
2022-12-12T12:04:20.228Z,10.32
2022-12-12T12:07:17.953Z,9.95
2022-12-12T12:10:15.038Z,15.68
2022-12-12T12:12:46.851Z,13.93
2022-12-12T12:15:22.843Z,10.65
2022-12-12T12:18:09.734Z,7.55
2022-12-12T12:20:51.643Z,10.70
2022-12-12T12:23:28.654Z,8.98
2022-12-12T12:26:02.077Z,15.15
2022-12-12T12:28:48.202Z,12.00
2022-12-12T12:31:42.228Z,9.23
2022-12-12T12:34:45.963Z,22.83
2022-12-12T12:37:27.739Z,11.55
2022-12-12T12:40:14.699Z,11.90
2022-12-12T12:42:51.366Z,8.68
2022-12-12T12:45:37.622Z,8.70
2022-12-12T12:48:15.949Z,15.82
2022-12-12T12:50:49.015Z,11.55
2022-12-12T12:53:28.983Z,10.55
2022-12-12T12:56:01.089Z,17.45
2022-12-12T12:58:42.985Z,11.63
2022-12-12T13:01:15.957Z,13.98
2022-12-12T13:03:54.275Z,16.70
2022-12-12T13:06:35.132Z,12.30
2022-12-12T13:09:16.205Z,15.00
2022-12-12T13:11:47.462Z,15.27
2022-12-12T13:14:26.978Z,14.05
2022-12-12T13:16:58.549Z,13.43
2022-12-12T13:19:35.604Z,12.25
2022-12-12T13:22:19.004Z,11.45
2022-12-12T13:25:14.173Z,9.38
2022-12-12T13:27:48.846Z,8.23
2022-12-12T13:30:22.313Z,7.47
2022-12-12T13:33:17.897Z,11.35
2022-12-12T13:35:49.652Z,4.65
2022-12-12T13:38:21.872Z,5.75
2022-12-12T13:40:57.874Z,3.55
2022-12-12T13:43:33.762Z,4.78
2022-12-12T13:46:27.545Z,4.65
2022-12-12T13:49:00.608Z,7.90
2022-12-12T13:51:31.123Z,5.40
2022-12-12T13:54:12.126Z,4.05
2022-12-12T13:56:52.915Z,3.90
2022-12-12T13:59:23.013Z,5.20
2022-12-12T14:01:52.397Z,5.18
2022-12-12T14:04:28.489Z,5.30
2022-12-12T14:07:12.465Z,5.18
2022-12-12T14:09:48.645Z,3.35
2022-12-12T14:12:19.462Z,5.45
2022-12-12T14:15:27.501Z,4.25
2022-12-12T14:18:01.077Z,6.57
2022-12-12T14:20:35.682Z,5.47
2022-12-12T14:23:20.705Z,5.80
2022-12-12T14:25:48.082Z,6.75
2022-12-12T14:28:29.793Z,16.88
2022-12-12T14:31:15.273Z,36.75
2022-12-12T14:34:02.253Z,29.92
2022-12-12T14:36:38.852Z,13.35
2022-12-12T14:39:21.951Z,6.93
2022-12-12T14:41:49.388Z,12.70
2022-12-12T14:44:37.676Z,14.13
2022-12-12T14:47:08.880Z,9.55
2022-12-12T14:49:36.211Z,8.70
2022-12-12T14:52:03.371Z,11.60
2022-12-12T14:54:31.339Z,13.80
2022-12-12T14:56:59.400Z,11.52
2022-12-12T14:59:32.916Z,16.88
2022-12-12T15:02:14.582Z,9.13
2022-12-12T15:04:45.992Z,11.75
2022-12-12T15:07:27.850Z,13.73
2022-12-12T15:09:55.211Z,13.77
2022-12-12T15:12:34.131Z,9.70
2022-12-12T15:15:01.347Z,12.63
2022-12-12T15:17:43.996Z,8.98
2022-12-12T15:20:20.370Z,9.15
2022-12-12T15:22:53.083Z,9.82
2022-12-12T15:25:22.657Z,14.73
2022-12-12T15:27:56.106Z,12.18
2022-12-12T15:30:32.837Z,17.90
2022-12-12T15:33:01.768Z,23.75
2022-12-12T15:35:29.337Z,16.70
2022-12-12T15:38:01.312Z,19.73
2022-12-12T15:40:32.261Z,36.80
2022-12-12T15:43:05.051Z,18.05
2022-12-12T15:45:35.619Z,18.23
2022-12-12T15:48:04.798Z,17.52
2022-12-12T15:51:00.590Z,20.02
2022-12-12T15:53:29.615Z,24.45
2022-12-12T15:56:05.352Z,22.00
2022-12-12T15:58:35.626Z,17.45
2022-12-12T16:01:28.219Z,17.55
2022-12-12T16:04:10.140Z,16.45
2022-12-12T16:06:45.912Z,18.02
2022-12-12T16:09:21.951Z,16.23
2022-12-12T16:11:48.811Z,12.32
2022-12-12T16:14:40.265Z,15.98
2022-12-12T16:17:23.325Z,15.75
2022-12-12T16:20:04.909Z,20.25
2022-12-12T16:22:43.823Z,17.27
2022-12-12T16:25:30.262Z,19.52
2022-12-12T16:28:07.421Z,22.30
2022-12-12T16:30:35.807Z,28.33
2022-12-12T16:33:35.269Z,21.45
2022-12-12T16:36:05.028Z,24.38
2022-12-12T16:38:32.460Z,24.30
2022-12-12T16:41:06.134Z,21.60
2022-12-12T16:43:33.382Z,21.08
2022-12-12T16:46:00.549Z,23.92
2022-12-12T16:48:31.774Z,28.02
2022-12-12T16:51:06.240Z,26.73
2022-12-12T16:53:35.121Z,22.00
2022-12-12T16:56:02.946Z,28.38
2022-12-12T16:58:30.290Z,25.52
2022-12-12T17:00:59.175Z,21.27
2022-12-12T17:03:26.652Z,26.45
2022-12-12T17:05:53.678Z,29.48
2022-12-12T17:08:20.684Z,21.48
2022-12-12T17:10:49.614Z,23.73
2022-12-12T17:13:19.784Z,21.92
2022-12-12T17:15:47.145Z,26.63
2022-12-12T17:18:14.059Z,24.13
2022-12-12T17:20:41.765Z,28.60
2022-12-12T17:23:28.051Z,22.80
2022-12-12T17:26:02.488Z,27.38
2022-12-12T17:28:31.317Z,21.58
2022-12-12T17:30:58.144Z,19.42
2022-12-12T17:33:25.679Z,28.95
2022-12-12T17:35:59.583Z,19.50
2022-12-12T17:38:26.739Z,24.92
2022-12-12T17:40:55.810Z,21.13
2022-12-12T17:43:24.626Z,22.00
2022-12-12T17:46:04.213Z,24.98
2022-12-12T17:48:33.308Z,27.52
2022-12-12T17:51:02.109Z,22.15
2022-12-12T17:53:38.301Z,27.33
2022-12-12T17:56:09.589Z,25.20
2022-12-12T17:58:38.400Z,30.55
2022-12-12T18:01:17.570Z,29.02
2022-12-12T18:03:45.602Z,26.02
2022-12-12T18:06:13.383Z,34.78
2022-12-12T18:08:41.065Z,20.92
2022-12-12T18:11:10.621Z,46.17
2022-12-12T18:13:39.078Z,30.38
2022-12-12T18:16:07.482Z,21.58
2022-12-12T18:18:35.049Z,27.27
2022-12-12T18:21:04.780Z,25.00
2022-12-12T18:23:32.234Z,25.58
2022-12-12T18:26:07.873Z,23.13
2022-12-12T18:28:35.813Z,36.83
2022-12-12T18:31:03.992Z,22.83
2022-12-12T18:33:31.601Z,21.77
2022-12-12T18:36:03.951Z,19.67
2022-12-12T18:38:31.045Z,21.10
2022-12-12T18:40:58.233Z,22.02
2022-12-12T18:43:27.681Z,19.88
2022-12-12T18:45:55.583Z,20.02
2022-12-12T18:48:22.453Z,25.73
2022-12-12T18:50:49.209Z,25.10
2022-12-12T18:53:16.557Z,18.55
2022-12-12T18:55:43.926Z,19.88
2022-12-12T18:58:12.019Z,13.52
2022-12-12T19:00:40.374Z,14.70
2022-12-12T19:03:08.635Z,31.60
2022-12-12T19:05:41.622Z,32.35
2022-12-12T19:08:09.246Z,36.40
2022-12-12T19:10:37.072Z,44.78
2022-12-12T19:13:04.776Z,23.15
2022-12-12T19:15:31.704Z,31.48
2022-12-12T19:17:58.508Z,28.23
2022-12-12T19:20:25.709Z,18.00
2022-12-12T19:22:52.912Z,18.75
2022-12-12T19:25:20.909Z,19.40
2022-12-12T19:27:47.710Z,18.17
2022-12-12T19:30:15.862Z,18.60
2022-12-12T19:32:43.502Z,18.48
2022-12-12T19:35:10.754Z,14.80
2022-12-12T19:37:37.669Z,16.25
2022-12-12T19:40:04.774Z,47.40
2022-12-12T19:42:32.031Z,28.00
2022-12-12T19:44:58.886Z,41.33
2022-12-12T19:47:25.767Z,32.63
2022-12-12T19:49:52.673Z,49.40
2022-12-12T19:52:19.904Z,92.45
2022-12-12T19:54:46.820Z,42.95
2022-12-12T19:57:14.039Z,78.43
2022-12-12T19:59:41.324Z,65.22
2022-12-12T20:02:10.258Z,85.22
2022-12-12T20:04:39.359Z,111.90
2022-12-12T20:07:06.608Z,106.50
2022-12-12T20:09:35.424Z,67.53
2022-12-12T20:12:02.381Z,63.72
2022-12-12T20:14:32.389Z,62.25
2022-12-12T20:17:00.104Z,69.35
2022-12-12T20:19:27.970Z,59.45
2022-12-12T20:22:01.210Z,40.45
2022-12-12T20:24:29.523Z,64.35
2022-12-12T20:26:57.363Z,91.45
2022-12-12T20:29:24.227Z,50.10
2022-12-12T20:31:51.549Z,45.22
2022-12-12T20:34:22.034Z,46.88
2022-12-12T20:36:50.343Z,54.60
2022-12-12T20:39:22.244Z,52.97
2022-12-12T20:41:50.548Z,53.85
2022-12-12T20:44:18.433Z,64.28
2022-12-12T20:46:47.010Z,61.03
2022-12-12T20:49:17.458Z,63.42
2022-12-12T20:52:00.999Z,64.35
2022-12-12T20:54:29.698Z,65.30
2022-12-12T20:56:58.268Z,89.63
2022-12-12T20:59:25.829Z,71.38
2022-12-12T21:01:53.270Z,62.20
2022-12-12T21:04:20.664Z,71.32
2022-12-12T21:06:48.646Z,43.97
2022-12-12T21:09:23.401Z,45.70
2022-12-12T21:11:58.104Z,49.22
2022-12-12T21:14:27.115Z,43.72
2022-12-12T21:16:54.440Z,30.00
2022-12-12T21:19:23.345Z,39.08
2022-12-12T21:21:50.952Z,39.42
2022-12-12T21:24:17.994Z,33.95
2022-12-12T21:26:45.671Z,32.17
2022-12-12T21:29:12.575Z,29.20
2022-12-12T21:31:46.599Z,27.27
2022-12-12T21:34:16.537Z,25.65
2022-12-12T21:36:44.622Z,22.05
2022-12-12T21:39:12.859Z,21.50
2022-12-12T21:41:42.146Z,17.60
2022-12-12T21:44:10.054Z,16.83
2022-12-12T21:46:39.300Z,14.80
2022-12-12T21:49:25.185Z,15.68
2022-12-12T21:52:00.532Z,15.02
2022-12-12T21:54:29.343Z,15.30
2022-12-12T21:56:57.188Z,16.45
2022-12-12T21:59:24.818Z,15.75
2022-12-12T22:01:57.776Z,15.85
2022-12-12T22:04:25.522Z,13.20
2022-12-12T22:06:52.895Z,18.13
2022-12-12T22:09:19.991Z,15.57
2022-12-12T22:11:50.083Z,12.77
2022-12-12T22:14:20.231Z,16.45
2022-12-12T22:16:47.020Z,14.20
2022-12-12T22:19:15.436Z,14.40
2022-12-12T22:21:45.284Z,13.50
2022-12-12T22:24:12.036Z,13.82
2022-12-12T22:26:41.741Z,14.60
2022-12-12T22:29:12.722Z,13.65
2022-12-12T22:31:40.959Z,11.02
2022-12-12T22:34:12.572Z,16.63
2022-12-12T22:36:40.185Z,16.67
2022-12-12T22:39:11.190Z,19.40
2022-12-12T22:41:37.953Z,14.82
2022-12-12T22:44:06.561Z,17.65
2022-12-12T22:46:36.965Z,14.77
2022-12-12T22:49:06.519Z,16.55
2022-12-12T22:51:34.144Z,17.48
2022-12-12T22:54:03.726Z,15.65
2022-12-12T22:56:34.040Z,13.05
2022-12-12T22:59:01.144Z,12.95
2022-12-12T23:01:28.591Z,12.50
2022-12-12T23:03:56.022Z,11.90
2022-12-12T23:06:31.602Z,12.07
2022-12-12T23:09:16.819Z,9.48
2022-12-12T23:11:45.224Z,10.25
2022-12-12T23:14:15.472Z,12.93
2022-12-12T23:16:43.272Z,12.23
2022-12-12T23:19:10.688Z,17.85
2022-12-12T23:21:38.095Z,14.35
2022-12-12T23:24:06.000Z,15.88
2022-12-12T23:26:35.246Z,16.65
2022-12-12T23:29:04.077Z,21.73
2022-12-12T23:31:33.453Z,32.03
2022-12-12T23:34:04.537Z,35.47
2022-12-12T23:36:32.206Z,26.08
2022-12-12T23:39:04.811Z,31.23
2022-12-12T23:41:31.873Z,42.38
2022-12-12T23:43:58.890Z,37.40
2022-12-12T23:46:29.384Z,37.03
2022-12-12T23:49:02.613Z,33.72
2022-12-12T23:51:36.350Z,32.08
2022-12-12T23:54:06.893Z,40.75
2022-12-12T23:56:33.850Z,56.55
2022-12-12T23:59:01.035Z,49.13
